sensor_id;sensor_type;location;lat;lon;timestamp;P1;durP1;ratioP1;P2;durP2;ratioP2
10637;SDS011;47007;49.252;8.904;2023-03-01T00:00:40;10.50;;;9.40;;
10637;SDS011;47007;49.252;8.904;2023-03-01T00:01:30;11.13;;;9.80;;
10637;SDS011;47007;49.252;8.904;2023-03-01T00:02:12;11.23;;;9.87;;
10637;SDS011;47007;49.252;8.904;2023-03-01T00:02:54;11.67;;;9.77;;
10637;SDS011;47007;49.252;8.904;2023-03-01T00:03:36;12.45;;;11.23;;
10637;SDS011;47007;49.252;8.904;2023-03-01T00:04:18;11.60;;;10.10;;
10637;SDS011;47007;49.252;8.904;2023-03-01T00:04:59;12.23;;;10.63;;
10637;SDS011;47007;49.252;8.904;2023-03-01T00:05:44;11.33;;;10.20;;
10637;SDS011;47007;49.252;8.904;2023-03-01T00:06:27;11.27;;;10.10;;
10637;SDS011;47007;49.252;8.904;2023-03-01T00:07:10;12.43;;;10.33;;
10637;SDS011;47007;49.252;8.904;2023-03-01T00:07:54;13.03;;;11.10;;
10637;SDS011;47007;49.252;8.904;2023-03-01T00:08:36;11.70;;;10.50;;
10637;SDS011;47007;49.252;8.904;2023-03-01T00:09:18;11.00;;;9.90;;
10637;SDS011;47007;49.252;8.904;2023-03-01T00:10:00;12.07;;;10.27;;
10637;SDS011;47007;49.252;8.904;2023-03-01T00:10:42;11.17;;;9.70;;
10637;SDS011;47007;49.252;8.904;2023-03-01T00:11:24;11.37;;;10.17;;
10637;SDS011;47007;49.252;8.904;2023-03-01T00:12:07;11.07;;;9.87;;
10637;SDS011;47007;49.252;8.904;2023-03-01T00:12:49;12.77;;;10.80;;
10637;SDS011;47007;49.252;8.904;2023-03-01T00:13:30;11.03;;;9.87;;
10637;SDS011;47007;49.252;8.904;2023-03-01T00:14:13;12.67;;;11.10;;
10637;SDS011;47007;49.252;8.904;2023-03-01T00:14:55;12.20;;;10.20;;
10637;SDS011;47007;49.252;8.904;2023-03-01T00:15:40;12.80;;;11.50;;
10637;SDS011;47007;49.252;8.904;2023-03-01T00:16:24;12.50;;;10.83;;
10637;SDS011;47007;49.252;8.904;2023-03-01T00:17:07;12.20;;;10.97;;
10637;SDS011;47007;49.252;8.904;2023-03-01T00:17:49;12.33;;;11.03;;
10637;SDS011;47007;49.252;8.904;2023-03-01T00:18:31;14.27;;;10.80;;
10637;SDS011;47007;49.252;8.904;2023-03-01T00:19:13;12.90;;;10.63;;
10637;SDS011;47007;49.252;8.904;2023-03-01T00:19:59;14.17;;;11.10;;
10637;SDS011;47007;49.252;8.904;2023-03-01T00:20:40;11.27;;;10.17;;
10637;SDS011;47007;49.252;8.904;2023-03-01T00:21:22;12.43;;;10.17;;
10637;SDS011;47007;49.252;8.904;2023-03-01T00:22:05;12.77;;;11.37;;
10637;SDS011;47007;49.252;8.904;2023-03-01T00:22:47;11.88;;;10.48;;
10637;SDS011;47007;49.252;8.904;2023-03-01T00:23:28;11.60;;;10.20;;
10637;SDS011;47007;49.252;8.904;2023-03-01T00:24:10;12.13;;;10.87;;
10637;SDS011;47007;49.252;8.904;2023-03-01T00:24:52;12.57;;;10.40;;
10637;SDS011;47007;49.252;8.904;2023-03-01T00:25:40;11.65;;;10.18;;
10637;SDS011;47007;49.252;8.904;2023-03-01T00:26:23;12.47;;;10.63;;
10637;SDS011;47007;49.252;8.904;2023-03-01T00:27:06;13.10;;;10.27;;
10637;SDS011;47007;49.252;8.904;2023-03-01T00:27:47;11.40;;;10.20;;
10637;SDS011;47007;49.252;8.904;2023-03-01T00:28:31;12.10;;;10.80;;
10637;SDS011;47007;49.252;8.904;2023-03-01T00:29:12;11.83;;;10.33;;
10637;SDS011;47007;49.252;8.904;2023-03-01T00:29:54;12.43;;;11.13;;
10637;SDS011;47007;49.252;8.904;2023-03-01T00:30:36;11.90;;;9.77;;
10637;SDS011;47007;49.252;8.904;2023-03-01T00:31:18;12.20;;;10.90;;
10637;SDS011;47007;49.252;8.904;2023-03-01T00:32:02;11.60;;;10.30;;
10637;SDS011;47007;49.252;8.904;2023-03-01T00:32:44;11.93;;;10.50;;
10637;SDS011;47007;49.252;8.904;2023-03-01T00:33:26;12.40;;;11.10;;
10637;SDS011;47007;49.252;8.904;2023-03-01T00:34:08;11.60;;;10.50;;
10637;SDS011;47007;49.252;8.904;2023-03-01T00:34:50;13.63;;;10.73;;
10637;SDS011;47007;49.252;8.904;2023-03-01T00:35:35;12.80;;;11.23;;
10637;SDS011;47007;49.252;8.904;2023-03-01T00:36:17;13.23;;;10.43;;
10637;SDS011;47007;49.252;8.904;2023-03-01T00:36:59;12.37;;;11.07;;
10637;SDS011;47007;49.252;8.904;2023-03-01T00:37:46;14.03;;;11.50;;
10637;SDS011;47007;49.252;8.904;2023-03-01T00:38:28;13.17;;;11.67;;
10637;SDS011;47007;49.252;8.904;2023-03-01T00:39:11;13.53;;;10.83;;
10637;SDS011;47007;49.252;8.904;2023-03-01T00:39:55;12.17;;;10.90;;
10637;SDS011;47007;49.252;8.904;2023-03-01T00:40:37;12.53;;;11.23;;
10637;SDS011;47007;49.252;8.904;2023-03-01T00:41:19;14.90;;;11.53;;
10637;SDS011;47007;49.252;8.904;2023-03-01T00:42:01;12.10;;;10.80;;
10637;SDS011;47007;49.252;8.904;2023-03-01T00:42:43;12.17;;;10.87;;
10637;SDS011;47007;49.252;8.904;2023-03-01T00:43:25;12.80;;;11.17;;
10637;SDS011;47007;49.252;8.904;2023-03-01T00:44:06;12.53;;;11.23;;
10637;SDS011;47007;49.252;8.904;2023-03-01T00:44:49;12.20;;;10.90;;
10637;SDS011;47007;49.252;8.904;2023-03-01T00:45:32;12.60;;;11.30;;
10637;SDS011;47007;49.252;8.904;2023-03-01T00:46:15;12.13;;;10.93;;
10637;SDS011;47007;49.252;8.904;2023-03-01T00:46:58;12.50;;;11.20;;
10637;SDS011;47007;49.252;8.904;2023-03-01T00:47:40;12.43;;;11.07;;
10637;SDS011;47007;49.252;8.904;2023-03-01T00:48:22;12.97;;;11.30;;
10637;SDS011;47007;49.252;8.904;2023-03-01T00:49:04;12.67;;;11.07;;
10637;SDS011;47007;49.252;8.904;2023-03-01T00:49:46;11.93;;;10.77;;
10637;SDS011;47007;49.252;8.904;2023-03-01T00:50:28;12.77;;;11.23;;
10637;SDS011;47007;49.252;8.904;2023-03-01T00:51:11;12.80;;;11.50;;
10637;SDS011;47007;49.252;8.904;2023-03-01T00:51:55;14.80;;;11.23;;
10637;SDS011;47007;49.252;8.904;2023-03-01T00:52:37;12.43;;;10.93;;
10637;SDS011;47007;49.252;8.904;2023-03-01T00:53:19;12.60;;;11.30;;
10637;SDS011;47007;49.252;8.904;2023-03-01T00:54:01;12.53;;;11.30;;
10637;SDS011;47007;49.252;8.904;2023-03-01T00:54:44;12.13;;;10.37;;
10637;SDS011;47007;49.252;8.904;2023-03-01T00:55:25;13.13;;;11.80;;
10637;SDS011;47007;49.252;8.904;2023-03-01T00:56:08;14.20;;;12.20;;
10637;SDS011;47007;49.252;8.904;2023-03-01T00:56:51;12.60;;;11.23;;
10637;SDS011;47007;49.252;8.904;2023-03-01T00:57:33;12.40;;;10.70;;
10637;SDS011;47007;49.252;8.904;2023-03-01T00:58:14;13.57;;;11.50;;
10637;SDS011;47007;49.252;8.904;2023-03-01T00:58:56;13.90;;;11.13;;
10637;SDS011;47007;49.252;8.904;2023-03-01T00:59:37;12.63;;;10.43;;
10637;SDS011;47007;49.252;8.904;2023-03-01T01:00:19;12.70;;;11.33;;
10637;SDS011;47007;49.252;8.904;2023-03-01T01:01:58;14.40;;;11.70;;
10637;SDS011;47007;49.252;8.904;2023-03-01T01:02:40;13.67;;;12.07;;
10637;SDS011;47007;49.252;8.904;2023-03-01T01:03:22;12.93;;;11.03;;
10637;SDS011;47007;49.252;8.904;2023-03-01T01:04:09;14.43;;;11.40;;
10637;SDS011;47007;49.252;8.904;2023-03-01T01:04:54;12.33;;;11.03;;
10637;SDS011;47007;49.252;8.904;2023-03-01T01:05:35;13.23;;;10.80;;
10637;SDS011;47007;49.252;8.904;2023-03-01T01:06:18;13.10;;;11.70;;
10637;SDS011;47007;49.252;8.904;2023-03-01T01:07:02;12.73;;;11.40;;
10637;SDS011;47007;49.252;8.904;2023-03-01T01:07:43;12.13;;;10.70;;
10637;SDS011;47007;49.252;8.904;2023-03-01T01:08:25;13.77;;;11.57;;
10637;SDS011;47007;49.252;8.904;2023-03-01T01:09:07;12.73;;;11.17;;
10637;SDS011;47007;49.252;8.904;2023-03-01T01:09:49;15.20;;;12.53;;
10637;SDS011;47007;49.252;8.904;2023-03-01T01:10:32;13.30;;;11.10;;
10637;SDS011;47007;49.252;8.904;2023-03-01T01:11:15;13.37;;;11.33;;
10637;SDS011;47007;49.252;8.904;2023-03-01T01:11:57;12.83;;;11.53;;
10637;SDS011;47007;49.252;8.904;2023-03-01T01:12:39;12.80;;;11.50;;
10637;SDS011;47007;49.252;8.904;2023-03-01T01:13:21;12.57;;;11.27;;
10637;SDS011;47007;49.252;8.904;2023-03-01T01:14:02;12.80;;;11.40;;
10637;SDS011;47007;49.252;8.904;2023-03-01T01:14:44;12.90;;;11.33;;
10637;SDS011;47007;49.252;8.904;2023-03-01T01:15:26;12.93;;;11.27;;
10637;SDS011;47007;49.252;8.904;2023-03-01T01:16:08;13.77;;;12.37;;
10637;SDS011;47007;49.252;8.904;2023-03-01T01:16:49;13.87;;;11.30;;
10637;SDS011;47007;49.252;8.904;2023-03-01T01:17:32;13.13;;;11.73;;
10637;SDS011;47007;49.252;8.904;2023-03-01T01:18:14;13.07;;;11.50;;
10637;SDS011;47007;49.252;8.904;2023-03-01T01:18:56;12.40;;;11.10;;
10637;SDS011;47007;49.252;8.904;2023-03-01T01:19:38;12.80;;;11.40;;
10637;SDS011;47007;49.252;8.904;2023-03-01T01:20:20;12.20;;;10.70;;
10637;SDS011;47007;49.252;8.904;2023-03-01T01:21:06;12.80;;;11.40;;
10637;SDS011;47007;49.252;8.904;2023-03-01T01:21:49;12.63;;;11.23;;
10637;SDS011;47007;49.252;8.904;2023-03-01T01:22:32;14.97;;;11.93;;
10637;SDS011;47007;49.252;8.904;2023-03-01T01:23:14;13.47;;;12.07;;
10637;SDS011;47007;49.252;8.904;2023-03-01T01:23:55;13.97;;;12.17;;
10637;SDS011;47007;49.252;8.904;2023-03-01T01:24:38;12.97;;;11.53;;
10637;SDS011;47007;49.252;8.904;2023-03-01T01:25:19;11.93;;;10.67;;
10637;SDS011;47007;49.252;8.904;2023-03-01T01:26:09;13.53;;;12.20;;
10637;SDS011;47007;49.252;8.904;2023-03-01T01:26:53;14.20;;;11.50;;
10637;SDS011;47007;49.252;8.904;2023-03-01T01:27:35;14.50;;;12.97;;
10637;SDS011;47007;49.252;8.904;2023-03-01T01:28:16;13.57;;;12.17;;
10637;SDS011;47007;49.252;8.904;2023-03-01T01:28:58;14.27;;;12.03;;
10637;SDS011;47007;49.252;8.904;2023-03-01T01:29:44;12.77;;;11.40;;
10637;SDS011;47007;49.252;8.904;2023-03-01T01:30:26;15.03;;;13.00;;
10637;SDS011;47007;49.252;8.904;2023-03-01T01:31:08;13.80;;;11.13;;
10637;SDS011;47007;49.252;8.904;2023-03-01T01:31:50;13.47;;;11.63;;
10637;SDS011;47007;49.252;8.904;2023-03-01T01:32:31;12.93;;;11.53;;
10637;SDS011;47007;49.252;8.904;2023-03-01T01:33:13;14.37;;;12.07;;
10637;SDS011;47007;49.252;8.904;2023-03-01T01:33:55;13.07;;;11.23;;
10637;SDS011;47007;49.252;8.904;2023-03-01T01:34:37;14.40;;;12.23;;
10637;SDS011;47007;49.252;8.904;2023-03-01T01:35:19;13.83;;;11.90;;
10637;SDS011;47007;49.252;8.904;2023-03-01T01:36:01;11.70;;;10.33;;
10637;SDS011;47007;49.252;8.904;2023-03-01T01:36:43;12.03;;;10.77;;
10637;SDS011;47007;49.252;8.904;2023-03-01T01:37:29;13.40;;;11.37;;
10637;SDS011;47007;49.252;8.904;2023-03-01T01:38:12;13.43;;;12.00;;
10637;SDS011;47007;49.252;8.904;2023-03-01T01:38:54;15.47;;;12.60;;
10637;SDS011;47007;49.252;8.904;2023-03-01T01:39:36;13.97;;;12.03;;
10637;SDS011;47007;49.252;8.904;2023-03-01T01:40:17;14.47;;;12.33;;
10637;SDS011;47007;49.252;8.904;2023-03-01T01:40:59;13.90;;;12.37;;
10637;SDS011;47007;49.252;8.904;2023-03-01T01:41:41;13.87;;;12.47;;
10637;SDS011;47007;49.252;8.904;2023-03-01T01:42:24;15.37;;;12.33;;
10637;SDS011;47007;49.252;8.904;2023-03-01T01:43:07;15.20;;;13.00;;
10637;SDS011;47007;49.252;8.904;2023-03-01T01:45:26;14.63;;;11.67;;
10637;SDS011;47007;49.252;8.904;2023-03-01T01:46:21;13.37;;;11.97;;
10637;SDS011;47007;49.252;8.904;2023-03-01T01:47:11;13.90;;;12.00;;
10637;SDS011;47007;49.252;8.904;2023-03-01T01:47:57;13.17;;;11.47;;
10637;SDS011;47007;49.252;8.904;2023-03-01T01:48:45;14.83;;;12.77;;
10637;SDS011;47007;49.252;8.904;2023-03-01T01:50:26;14.13;;;12.10;;
10637;SDS011;47007;49.252;8.904;2023-03-01T01:51:19;13.40;;;11.93;;
10637;SDS011;47007;49.252;8.904;2023-03-01T01:52:05;16.13;;;12.47;;
10637;SDS011;47007;49.252;8.904;2023-03-01T01:52:55;14.47;;;12.30;;
10637;SDS011;47007;49.252;8.904;2023-03-01T01:53:36;13.73;;;12.20;;
10637;SDS011;47007;49.252;8.904;2023-03-01T01:54:21;14.07;;;12.17;;
10637;SDS011;47007;49.252;8.904;2023-03-01T01:56:02;14.57;;;12.67;;
10637;SDS011;47007;49.252;8.904;2023-03-01T01:56:50;15.00;;;12.30;;
10637;SDS011;47007;49.252;8.904;2023-03-01T01:57:37;14.30;;;11.83;;
10637;SDS011;47007;49.252;8.904;2023-03-01T01:58:23;13.17;;;11.77;;
10637;SDS011;47007;49.252;8.904;2023-03-01T01:59:08;15.40;;;11.90;;
10637;SDS011;47007;49.252;8.904;2023-03-01T01:59:51;13.47;;;12.07;;
10637;SDS011;47007;49.252;8.904;2023-03-01T02:00:36;14.20;;;11.80;;
10637;SDS011;47007;49.252;8.904;2023-03-01T02:01:18;14.13;;;12.30;;
10637;SDS011;47007;49.252;8.904;2023-03-01T02:02:02;13.03;;;11.67;;
10637;SDS011;47007;49.252;8.904;2023-03-01T02:02:45;12.97;;;11.50;;
10637;SDS011;47007;49.252;8.904;2023-03-01T02:03:31;12.27;;;10.97;;
10637;SDS011;47007;49.252;8.904;2023-03-01T02:04:18;13.83;;;11.87;;
10637;SDS011;47007;49.252;8.904;2023-03-01T02:05:03;14.33;;;12.20;;
10637;SDS011;47007;49.252;8.904;2023-03-01T02:06:00;13.77;;;12.07;;
10637;SDS011;47007;49.252;8.904;2023-03-01T02:07:15;13.90;;;12.23;;
10637;SDS011;47007;49.252;8.904;2023-03-01T02:08:04;14.20;;;12.07;;
10637;SDS011;47007;49.252;8.904;2023-03-01T02:08:47;14.67;;;12.37;;
10637;SDS011;47007;49.252;8.904;2023-03-01T02:09:31;14.47;;;12.73;;
10637;SDS011;47007;49.252;8.904;2023-03-01T02:10:15;13.10;;;11.67;;
10637;SDS011;47007;49.252;8.904;2023-03-01T02:10:57;13.33;;;11.93;;
10637;SDS011;47007;49.252;8.904;2023-03-01T02:11:41;13.17;;;11.40;;
10637;SDS011;47007;49.252;8.904;2023-03-01T02:12:24;12.60;;;10.87;;
10637;SDS011;47007;49.252;8.904;2023-03-01T02:13:07;13.57;;;12.17;;
10637;SDS011;47007;49.252;8.904;2023-03-01T02:13:50;14.13;;;11.77;;
10637;SDS011;47007;49.252;8.904;2023-03-01T02:14:31;13.50;;;11.70;;
10637;SDS011;47007;49.252;8.904;2023-03-01T02:15:13;15.30;;;13.00;;
10637;SDS011;47007;49.252;8.904;2023-03-01T02:15:55;14.33;;;12.60;;
10637;SDS011;47007;49.252;8.904;2023-03-01T02:16:37;14.47;;;12.97;;
10637;SDS011;47007;49.252;8.904;2023-03-01T02:17:19;13.80;;;12.30;;
10637;SDS011;47007;49.252;8.904;2023-03-01T02:18:02;14.37;;;12.20;;
10637;SDS011;47007;49.252;8.904;2023-03-01T02:18:45;15.73;;;12.80;;
10637;SDS011;47007;49.252;8.904;2023-03-01T02:19:34;14.97;;;12.70;;
10637;SDS011;47007;49.252;8.904;2023-03-01T02:22:44;12.63;;;11.03;;
10637;SDS011;47007;49.252;8.904;2023-03-01T02:23:28;14.03;;;11.80;;
10637;SDS011;47007;49.252;8.904;2023-03-01T02:26:58;13.57;;;11.80;;
10637;SDS011;47007;49.252;8.904;2023-03-01T02:28:36;14.83;;;12.17;;
10637;SDS011;47007;49.252;8.904;2023-03-01T02:29:19;14.13;;;11.83;;
10637;SDS011;47007;49.252;8.904;2023-03-01T02:30:02;15.17;;;12.03;;
10637;SDS011;47007;49.252;8.904;2023-03-01T02:30:47;15.43;;;13.07;;
10637;SDS011;47007;49.252;8.904;2023-03-01T02:31:51;14.80;;;12.63;;
10637;SDS011;47007;49.252;8.904;2023-03-01T02:32:40;14.20;;;12.13;;
10637;SDS011;47007;49.252;8.904;2023-03-01T02:33:23;15.30;;;13.40;;
10637;SDS011;47007;49.252;8.904;2023-03-01T02:34:06;14.37;;;12.47;;
10637;SDS011;47007;49.252;8.904;2023-03-01T02:34:53;15.47;;;13.77;;
10637;SDS011;47007;49.252;8.904;2023-03-01T02:35:37;15.13;;;12.73;;
10637;SDS011;47007;49.252;8.904;2023-03-01T02:36:21;17.33;;;12.80;;
10637;SDS011;47007;49.252;8.904;2023-03-01T02:37:11;16.27;;;13.73;;
10637;SDS011;47007;49.252;8.904;2023-03-01T02:37:56;15.77;;;13.53;;
10637;SDS011;47007;49.252;8.904;2023-03-01T02:38:39;14.50;;;12.97;;
10637;SDS011;47007;49.252;8.904;2023-03-01T02:39:26;14.73;;;13.17;;
10637;SDS011;47007;49.252;8.904;2023-03-01T02:40:15;16.05;;;12.75;;
10637;SDS011;47007;49.252;8.904;2023-03-01T02:40:59;16.73;;;13.50;;
10637;SDS011;47007;49.252;8.904;2023-03-01T02:41:47;15.43;;;13.43;;
10637;SDS011;47007;49.252;8.904;2023-03-01T02:42:31;16.10;;;12.93;;
10637;SDS011;47007;49.252;8.904;2023-03-01T02:43:19;15.10;;;12.93;;
10637;SDS011;47007;49.252;8.904;2023-03-01T02:44:04;16.10;;;13.70;;
10637;SDS011;47007;49.252;8.904;2023-03-01T02:44:48;15.00;;;12.57;;
10637;SDS011;47007;49.252;8.904;2023-03-01T02:45:30;15.60;;;13.00;;
10637;SDS011;47007;49.252;8.904;2023-03-01T02:46:15;14.97;;;12.97;;
10637;SDS011;47007;49.252;8.904;2023-03-01T02:46:59;15.90;;;13.80;;
10637;SDS011;47007;49.252;8.904;2023-03-01T02:47:44;14.23;;;12.43;;
10637;SDS011;47007;49.252;8.904;2023-03-01T02:48:26;14.13;;;12.13;;
10637;SDS011;47007;49.252;8.904;2023-03-01T02:49:18;15.40;;;13.40;;
10637;SDS011;47007;49.252;8.904;2023-03-01T02:54:01;13.00;;;11.53;;
10637;SDS011;47007;49.252;8.904;2023-03-01T02:54:58;16.30;;;12.50;;
10637;SDS011;47007;49.252;8.904;2023-03-01T02:55:46;15.00;;;12.17;;
10637;SDS011;47007;49.252;8.904;2023-03-01T02:56:27;14.63;;;12.53;;
10637;SDS011;47007;49.252;8.904;2023-03-01T02:57:11;14.97;;;12.67;;
10637;SDS011;47007;49.252;8.904;2023-03-01T02:57:53;13.87;;;11.50;;
10637;SDS011;47007;49.252;8.904;2023-03-01T02:58:36;14.03;;;11.97;;
10637;SDS011;47007;49.252;8.904;2023-03-01T02:59:29;15.33;;;13.20;;
10637;SDS011;47007;49.252;8.904;2023-03-01T03:00:21;15.00;;;13.27;;
10637;SDS011;47007;49.252;8.904;2023-03-01T03:01:06;14.87;;;13.10;;
10637;SDS011;47007;49.252;8.904;2023-03-01T03:01:50;17.00;;;13.37;;
10637;SDS011;47007;49.252;8.904;2023-03-01T03:02:32;14.23;;;12.67;;
10637;SDS011;47007;49.252;8.904;2023-03-01T03:03:27;15.47;;;11.70;;
10637;SDS011;47007;49.252;8.904;2023-03-01T03:04:09;14.03;;;12.53;;
10637;SDS011;47007;49.252;8.904;2023-03-01T03:05:00;15.67;;;12.93;;
10637;SDS011;47007;49.252;8.904;2023-03-01T03:05:47;14.60;;;12.80;;
10637;SDS011;47007;49.252;8.904;2023-03-01T03:06:30;14.10;;;12.13;;
10637;SDS011;47007;49.252;8.904;2023-03-01T03:07:12;14.93;;;12.20;;
10637;SDS011;47007;49.252;8.904;2023-03-01T03:07:54;14.17;;;12.67;;
10637;SDS011;47007;49.252;8.904;2023-03-01T03:08:37;15.87;;;12.47;;
10637;SDS011;47007;49.252;8.904;2023-03-01T03:09:19;15.13;;;12.93;;
10637;SDS011;47007;49.252;8.904;2023-03-01T03:10:01;14.90;;;13.30;;
10637;SDS011;47007;49.252;8.904;2023-03-01T03:10:45;15.47;;;12.90;;
10637;SDS011;47007;49.252;8.904;2023-03-01T03:11:26;14.97;;;12.90;;
10637;SDS011;47007;49.252;8.904;2023-03-01T03:12:09;14.88;;;13.27;;
10637;SDS011;47007;49.252;8.904;2023-03-01T03:12:52;14.98;;;12.63;;
10637;SDS011;47007;49.252;8.904;2023-03-01T03:13:38;14.37;;;12.47;;
10637;SDS011;47007;49.252;8.904;2023-03-01T03:14:29;16.13;;;13.00;;
10637;SDS011;47007;49.252;8.904;2023-03-01T03:15:11;13.30;;;11.83;;
10637;SDS011;47007;49.252;8.904;2023-03-01T03:15:54;14.70;;;12.80;;
10637;SDS011;47007;49.252;8.904;2023-03-01T03:16:37;13.77;;;12.37;;
10637;SDS011;47007;49.252;8.904;2023-03-01T03:17:29;16.10;;;12.33;;
10637;SDS011;47007;49.252;8.904;2023-03-01T03:18:12;14.57;;;12.07;;
10637;SDS011;47007;49.252;8.904;2023-03-01T03:18:55;16.20;;;12.70;;
10637;SDS011;47007;49.252;8.904;2023-03-01T03:19:46;14.37;;;12.47;;
10637;SDS011;47007;49.252;8.904;2023-03-01T03:20:28;14.30;;;12.40;;
10637;SDS011;47007;49.252;8.904;2023-03-01T03:21:11;15.07;;;12.93;;
10637;SDS011;47007;49.252;8.904;2023-03-01T03:21:53;14.03;;;12.53;;
10637;SDS011;47007;49.252;8.904;2023-03-01T03:22:34;14.77;;;13.07;;
10637;SDS011;47007;49.252;8.904;2023-03-01T03:23:16;13.87;;;12.47;;
10637;SDS011;47007;49.252;8.904;2023-03-01T03:23:58;13.67;;;12.20;;
10637;SDS011;47007;49.252;8.904;2023-03-01T03:24:39;15.13;;;13.43;;
10637;SDS011;47007;49.252;8.904;2023-03-01T03:25:21;16.87;;;13.43;;
10637;SDS011;47007;49.252;8.904;2023-03-01T03:26:05;14.70;;;12.90;;
10637;SDS011;47007;49.252;8.904;2023-03-01T03:26:47;14.53;;;12.77;;
10637;SDS011;47007;49.252;8.904;2023-03-01T03:27:28;16.33;;;13.97;;
10637;SDS011;47007;49.252;8.904;2023-03-01T03:28:10;15.00;;;13.00;;
10637;SDS011;47007;49.252;8.904;2023-03-01T03:28:52;16.33;;;14.10;;
10637;SDS011;47007;49.252;8.904;2023-03-01T03:29:33;15.93;;;13.20;;
10637;SDS011;47007;49.252;8.904;2023-03-01T03:30:17;16.10;;;13.33;;
10637;SDS011;47007;49.252;8.904;2023-03-01T03:31:00;15.43;;;13.30;;
10637;SDS011;47007;49.252;8.904;2023-03-01T03:31:45;16.43;;;13.80;;
10637;SDS011;47007;49.252;8.904;2023-03-01T03:32:27;15.50;;;13.70;;
10637;SDS011;47007;49.252;8.904;2023-03-01T03:33:09;15.77;;;13.40;;
10637;SDS011;47007;49.252;8.904;2023-03-01T03:33:54;17.97;;;13.10;;
10637;SDS011;47007;49.252;8.904;2023-03-01T03:34:35;15.87;;;12.90;;
10637;SDS011;47007;49.252;8.904;2023-03-01T03:35:18;15.23;;;12.77;;
10637;SDS011;47007;49.252;8.904;2023-03-01T03:36:02;15.07;;;13.30;;
10637;SDS011;47007;49.252;8.904;2023-03-01T03:36:44;16.40;;;12.90;;
10637;SDS011;47007;49.252;8.904;2023-03-01T03:37:26;14.93;;;12.73;;
10637;SDS011;47007;49.252;8.904;2023-03-01T03:38:26;14.90;;;13.30;;
10637;SDS011;47007;49.252;8.904;2023-03-01T03:39:07;15.47;;;13.00;;
10637;SDS011;47007;49.252;8.904;2023-03-01T03:39:49;15.10;;;12.43;;
10637;SDS011;47007;49.252;8.904;2023-03-01T03:41:20;16.83;;;13.23;;
10637;SDS011;47007;49.252;8.904;2023-03-01T03:42:01;14.83;;;13.23;;
10637;SDS011;47007;49.252;8.904;2023-03-01T03:42:43;16.23;;;13.73;;
10637;SDS011;47007;49.252;8.904;2023-03-01T03:43:25;16.50;;;13.37;;
10637;SDS011;47007;49.252;8.904;2023-03-01T03:44:06;18.57;;;14.47;;
10637;SDS011;47007;49.252;8.904;2023-03-01T03:44:48;16.03;;;14.03;;
10637;SDS011;47007;49.252;8.904;2023-03-01T03:45:30;16.83;;;14.67;;
10637;SDS011;47007;49.252;8.904;2023-03-01T03:46:15;14.67;;;12.87;;
10637;SDS011;47007;49.252;8.904;2023-03-01T03:46:56;16.43;;;13.17;;
10637;SDS011;47007;49.252;8.904;2023-03-01T03:47:38;15.50;;;13.07;;
10637;SDS011;47007;49.252;8.904;2023-03-01T03:48:20;16.43;;;14.20;;
10637;SDS011;47007;49.252;8.904;2023-03-01T03:49:02;15.90;;;13.97;;
10637;SDS011;47007;49.252;8.904;2023-03-01T03:49:43;15.40;;;13.30;;
10637;SDS011;47007;49.252;8.904;2023-03-01T03:50:25;18.00;;;14.53;;
10637;SDS011;47007;49.252;8.904;2023-03-01T03:51:09;17.97;;;13.70;;
10637;SDS011;47007;49.252;8.904;2023-03-01T03:51:52;16.77;;;13.67;;
10637;SDS011;47007;49.252;8.904;2023-03-01T03:52:34;15.07;;;12.73;;
10637;SDS011;47007;49.252;8.904;2023-03-01T03:53:15;13.73;;;12.27;;
10637;SDS011;47007;49.252;8.904;2023-03-01T03:53:58;14.20;;;12.70;;
10637;SDS011;47007;49.252;8.904;2023-03-01T03:54:42;16.03;;;14.33;;
10637;SDS011;47007;49.252;8.904;2023-03-01T03:55:24;17.13;;;14.40;;
10637;SDS011;47007;49.252;8.904;2023-03-01T03:56:11;16.87;;;14.33;;
10637;SDS011;47007;49.252;8.904;2023-03-01T03:56:53;16.13;;;13.57;;
10637;SDS011;47007;49.252;8.904;2023-03-01T03:57:34;17.07;;;13.70;;
10637;SDS011;47007;49.252;8.904;2023-03-01T03:58:17;16.47;;;13.43;;
10637;SDS011;47007;49.252;8.904;2023-03-01T03:59:01;16.37;;;13.60;;
10637;SDS011;47007;49.252;8.904;2023-03-01T03:59:42;15.37;;;13.17;;
10637;SDS011;47007;49.252;8.904;2023-03-01T04:00:24;14.90;;;13.33;;
10637;SDS011;47007;49.252;8.904;2023-03-01T04:01:06;16.00;;;14.00;;
10637;SDS011;47007;49.252;8.904;2023-03-01T04:01:48;15.27;;;13.67;;
10637;SDS011;47007;49.252;8.904;2023-03-01T04:02:29;15.17;;;13.33;;
10637;SDS011;47007;49.252;8.904;2023-03-01T04:03:12;17.10;;;13.80;;
10637;SDS011;47007;49.252;8.904;2023-03-01T04:03:55;15.70;;;13.40;;
10637;SDS011;47007;49.252;8.904;2023-03-01T04:04:37;15.83;;;14.13;;
10637;SDS011;47007;49.252;8.904;2023-03-01T04:05:18;15.43;;;13.73;;
10637;SDS011;47007;49.252;8.904;2023-03-01T04:06:00;16.83;;;12.73;;
10637;SDS011;47007;49.252;8.904;2023-03-01T04:06:42;15.53;;;13.27;;
10637;SDS011;47007;49.252;8.904;2023-03-01T04:07:24;16.27;;;14.00;;
10637;SDS011;47007;49.252;8.904;2023-03-01T04:08:06;16.60;;;14.13;;
10637;SDS011;47007;49.252;8.904;2023-03-01T04:08:48;15.30;;;13.53;;
10637;SDS011;47007;49.252;8.904;2023-03-01T04:09:32;15.33;;;13.47;;
10637;SDS011;47007;49.252;8.904;2023-03-01T04:10:17;15.07;;;13.47;;
10637;SDS011;47007;49.252;8.904;2023-03-01T04:11:00;16.03;;;13.10;;
10637;SDS011;47007;49.252;8.904;2023-03-01T04:12:02;15.80;;;13.60;;
10637;SDS011;47007;49.252;8.904;2023-03-01T04:12:44;15.57;;;13.00;;
10637;SDS011;47007;49.252;8.904;2023-03-01T04:13:26;16.43;;;14.00;;
10637;SDS011;47007;49.252;8.904;2023-03-01T04:14:08;15.60;;;13.37;;
10637;SDS011;47007;49.252;8.904;2023-03-01T04:14:50;16.33;;;13.27;;
10637;SDS011;47007;49.252;8.904;2023-03-01T04:15:33;15.60;;;13.90;;
10637;SDS011;47007;49.252;8.904;2023-03-01T04:16:15;16.67;;;13.57;;
10637;SDS011;47007;49.252;8.904;2023-03-01T04:16:57;15.47;;;12.93;;
10637;SDS011;47007;49.252;8.904;2023-03-01T04:17:42;16.47;;;13.43;;
10637;SDS011;47007;49.252;8.904;2023-03-01T04:18:25;16.77;;;12.93;;
10637;SDS011;47007;49.252;8.904;2023-03-01T04:19:07;14.70;;;12.80;;
10637;SDS011;47007;49.252;8.904;2023-03-01T04:19:50;16.30;;;13.33;;
10637;SDS011;47007;49.252;8.904;2023-03-01T04:20:33;15.13;;;13.43;;
10637;SDS011;47007;49.252;8.904;2023-03-01T04:21:16;15.47;;;13.57;;
10637;SDS011;47007;49.252;8.904;2023-03-01T04:21:58;17.37;;;14.23;;
10637;SDS011;47007;49.252;8.904;2023-03-01T04:22:40;14.30;;;12.70;;
10637;SDS011;47007;49.252;8.904;2023-03-01T04:23:21;16.80;;;13.93;;
10637;SDS011;47007;49.252;8.904;2023-03-01T04:24:03;16.73;;;14.32;;
10637;SDS011;47007;49.252;8.904;2023-03-01T04:24:45;17.50;;;13.70;;
10637;SDS011;47007;49.252;8.904;2023-03-01T04:25:27;16.00;;;13.53;;
10637;SDS011;47007;49.252;8.904;2023-03-01T04:26:11;16.27;;;14.20;;
10637;SDS011;47007;49.252;8.904;2023-03-01T04:26:53;16.20;;;13.93;;
10637;SDS011;47007;49.252;8.904;2023-03-01T04:27:35;17.27;;;13.93;;
10637;SDS011;47007;49.252;8.904;2023-03-01T04:28:17;16.43;;;13.67;;
10637;SDS011;47007;49.252;8.904;2023-03-01T04:28:59;15.87;;;14.03;;
10637;SDS011;47007;49.252;8.904;2023-03-01T04:29:40;15.90;;;13.93;;
10637;SDS011;47007;49.252;8.904;2023-03-01T04:30:22;14.70;;;13.00;;